Time;durP1;ratioP1;P1;durP2;ratioP2;P2;SDS_P1;SDS_P2;PMS_P1;PMS_P2;Temp;Humidity;BMP_temperature;BMP_pressure;BME280_temperature;BME280_humidity;BME280_pressure;Samples;Min_cycle;Max_cycle;Signal;HPM_P1;HPM_P2
2021/09/19 00:03:18;;;;;;;5.37;3.37;;;13.50;99.90;;;;;;20672072;28;20460;-77
2021/09/19 00:13:19;;;;;;;4.43;3.13;;;13.40;99.90;;;;;;20671628;28;20496;-77
2021/09/19 00:23:20;;;;;;;4.93;3.43;;;13.40;99.90;;;;;;20671083;28;20034;-78
2021/09/19 00:33:21;;;;;;;6.40;3.30;;;13.40;99.90;;;;;;20668886;28;20145;-78
2021/09/19 00:43:22;;;;;;;9.87;4.03;;;13.30;99.90;;;;;;20669265;28;20497;-78
2021/09/19 00:53:23;;;;;;;4.73;3.53;;;13.30;99.90;;;;;;20668680;28;20530;-77
2021/09/19 01:03:26;;;;;;;7.20;4.03;;;13.10;99.90;;;;;;20667314;28;20089;-78
2021/09/19 01:13:28;;;;;;;4.78;3.60;;;13.20;99.90;;;;;;20666929;28;20041;-77
2021/09/19 01:23:32;;;;;;;5.20;3.95;;;12.90;99.90;;;;;;20666015;28;20049;-77
2021/09/19 01:33:33;;;;;;;4.82;2.85;;;12.90;99.90;;;;;;20713099;28;20042;-77
2021/09/19 01:43:34;;;;;;;4.80;3.60;;;13.00;99.90;;;;;;20762151;28;20079;-77
2021/09/19 01:53:36;;;;;;;4.80;3.00;;;12.90;99.90;;;;;;20784201;28;20026;-77
2021/09/19 02:03:39;;;;;;;4.07;2.90;;;12.60;99.90;;;;;;20783870;28;20025;-77
2021/09/19 02:13:41;;;;;;;6.40;3.80;;;12.60;99.90;;;;;;20783202;28;20045;-77
2021/09/19 02:23:42;;;;;;;5.00;3.85;;;12.50;99.90;;;;;;20789319;28;20086;-77
2021/09/19 02:33:43;;;;;;;6.43;4.67;;;12.60;99.90;;;;;;20824913;28;20029;-78
2021/09/19 02:43:43;;;;;;;7.30;4.87;;;12.30;99.90;;;;;;20823034;28;20029;-77
2021/09/19 02:53:45;;;;;;;5.97;4.30;;;12.40;99.90;;;;;;20824105;28;20033;-78
2021/09/19 03:03:46;;;;;;;7.50;3.85;;;12.30;99.90;;;;;;20824778;28;20041;-78
2021/09/19 03:13:47;;;;;;;5.43;4.10;;;12.10;99.90;;;;;;20822644;28;20025;-78
2021/09/19 03:23:48;;;;;;;5.93;4.00;;;11.60;99.90;;;;;;20823234;28;20041;-77
2021/09/19 03:33:48;;;;;;;5.43;3.67;;;11.90;99.90;;;;;;20836091;28;20497;-77
2021/09/19 03:43:50;;;;;;;5.77;4.60;;;11.80;99.90;;;;;;20837560;28;20063;-77
2021/09/19 03:53:51;;;;;;;9.90;5.07;;;11.90;99.90;;;;;;20836106;28;20029;-78
2021/09/19 04:03:51;;;;;;;9.83;3.97;;;11.90;99.90;;;;;;20835233;28;20040;-78
2021/09/19 04:13:52;;;;;;;6.03;3.77;;;12.00;99.90;;;;;;20833861;28;20030;-77
2021/09/19 04:23:53;;;;;;;8.53;3.77;;;11.80;99.90;;;;;;20832846;28;20038;-77
2021/09/19 04:33:54;;;;;;;6.30;4.73;;;11.60;99.90;;;;;;20833076;28;20484;-77
2021/09/19 04:43:55;;;;;;;7.80;4.20;;;11.20;99.90;;;;;;20831246;28;20021;-78
2021/09/19 04:53:55;;;;;;;8.40;5.13;;;11.40;99.90;;;;;;20830419;28;20026;-77
2021/09/19 05:03:56;;;;;;;8.60;6.33;;;11.30;99.90;;;;;;20829289;28;20112;-76
2021/09/19 05:13:57;;;;;;;8.10;6.00;;;11.50;99.90;;;;;;20828383;28;20083;-76
2021/09/19 05:23:58;;;;;;;9.20;6.17;;;11.50;99.90;;;;;;20828706;28;20036;-76
2021/09/19 05:33:59;;;;;;;16.50;8.30;;;11.60;99.90;;;;;;20827999;28;20065;-76
2021/09/19 05:44:00;;;;;;;17.17;8.00;;;11.70;99.90;;;;;;20826264;28;20534;-76
2021/09/19 05:54:01;;;;;;;;;;;12.10;99.90;;;;;;20825899;28;20025;-76
2021/09/19 06:04:02;;;;;;;13.03;8.60;;;12.30;99.90;;;;;;20826168;28;20390;-76
2021/09/19 06:14:03;;;;;;;12.33;8.90;;;12.40;99.90;;;;;;20825727;28;20069;-77
2021/09/19 06:24:04;;;;;;;10.93;7.77;;;12.30;99.90;;;;;;20825320;28;20045;-77
2021/09/19 06:34:04;;;;;;;13.70;7.93;;;12.50;99.90;;;;;;20824784;28;20029;-76
2021/09/19 06:44:05;;;;;;;8.30;6.80;;;12.60;99.90;;;;;;20824439;28;20619;-76
2021/09/19 06:54:06;;;;;;;11.10;6.80;;;12.80;99.90;;;;;;20806173;28;20507;-76
2021/09/19 07:04:07;;;;;;;9.07;6.10;;;12.90;99.90;;;;;;20827956;28;20045;-76
2021/09/19 07:14:08;;;;;;;7.73;5.47;;;13.10;99.90;;;;;;20837394;28;20044;-76
2021/09/19 07:24:09;;;;;;;9.53;6.27;;;13.20;99.90;;;;;;20836616;28;20033;-76
2021/09/19 07:34:10;;;;;;;12.13;7.80;;;13.20;99.90;;;;;;20837601;28;20022;-77
2021/09/19 07:44:11;;;;;;;11.73;7.27;;;13.10;99.90;;;;;;20837258;28;20037;-76
2021/09/19 07:54:13;;;;;;;12.90;8.10;;;13.30;99.90;;;;;;20834638;28;20029;-75
2021/09/19 08:04:14;;;;;;;;;;;13.20;99.90;;;;;;20835634;28;20299;-75
2021/09/19 08:14:14;;;;;;;9.63;5.47;;;13.30;99.90;;;;;;20834809;28;20372;-75
2021/09/19 08:24:16;;;;;;;5.27;3.70;;;13.40;99.90;;;;;;20834073;28;20284;-75
2021/09/19 08:34:17;;;;;;;6.47;3.83;;;13.60;99.90;;;;;;20767772;28;20052;-75
2021/09/19 08:44:18;;;;;;;3.70;2.57;;;13.80;99.90;;;;;;20812138;28;20029;-75
2021/09/19 08:54:19;;;;;;;4.60;3.27;;;14.00;99.90;;;;;;20736674;28;20080;-75
2021/09/19 09:04:21;;;;;;;3.57;2.70;;;14.10;99.90;;;;;;20804684;28;20037;-75
2021/09/19 09:14:22;;;;;;;3.97;2.50;;;14.50;99.90;;;;;;20811151;28;20058;-75
2021/09/19 09:24:23;;;;;;;4.93;2.30;;;14.40;99.90;;;;;;20750121;28;20432;-76
2021/09/19 09:34:25;;;;;;;2.20;1.47;;;14.50;99.90;;;;;;20720541;28;20101;-77
2021/09/19 09:44:29;;;;;;;1.10;0.85;;;14.60;99.90;;;;;;20719824;28;20034;-78
2021/09/19 09:54:48;;;;;;;1.75;1.30;;;14.70;99.90;;;;;;20717018;28;20038;-76
2021/09/19 10:04:49;;;;;;;1.67;1.00;;;14.80;99.90;;;;;;20717568;28;20446;-76
2021/09/19 10:14:53;;;;;;;2.13;1.30;;;15.00;99.90;;;;;;20718994;28;20025;-75
2021/09/19 10:24:54;;;;;;;1.70;0.95;;;15.40;99.90;;;;;;20720375;28;20029;-75
2021/09/19 10:34:55;;;;;;;0.57;0.43;;;15.40;99.90;;;;;;20729197;28;20032;-76
2021/09/19 10:45:07;;;;;;;1.00;0.30;;;15.20;99.90;;;;;;20734276;28;20034;-75
2021/09/19 10:55:20;;;;;;;0.30;0.30;;;15.30;99.90;;;;;;20765527;28;20380;-77
2021/09/19 11:05:24;;;;;;;0.93;0.45;;;15.00;99.90;;;;;;20810447;28;20068;-76
2021/09/19 11:15:26;;;;;;;0.73;0.52;;;14.50;99.90;;;;;;20773142;28;20026;-75
2021/09/19 11:25:28;;;;;;;0.38;0.30;;;14.30;99.90;;;;;;20738573;28;20439;-75
2021/09/19 11:35:29;;;;;;;2.63;0.52;;;14.20;99.90;;;;;;20736840;28;20056;-75
2021/09/19 11:45:32;;;;;;;2.87;1.17;;;14.10;99.90;;;;;;20738558;28;20033;-75
2021/09/19 11:55:33;;;;;;;1.10;0.80;;;14.00;99.90;;;;;;20763169;28;20029;-75
2021/09/19 12:05:34;;;;;;;1.13;0.57;;;14.10;99.90;;;;;;20764205;28;20049;-75
2021/09/19 12:15:37;;;;;;;3.00;0.33;;;14.10;99.90;;;;;;20734942;28;20052;-75
2021/09/19 12:25:48;;;;;;;0.35;0.30;;;14.10;99.90;;;;;;20735402;28;20037;-75
2021/09/19 12:35:49;;;;;;;2.50;0.40;;;14.10;99.90;;;;;;20804115;28;20029;-74
2021/09/19 12:45:53;;;;;;;6.93;2.07;;;14.00;99.90;;;;;;20771955;28;20053;-75
2021/09/19 12:55:55;;;;;;;0.68;0.50;;;13.70;99.90;;;;;;20742942;28;20029;-75
2021/09/19 13:05:56;;;;;;;0.55;0.50;;;13.70;99.90;;;;;;20734594;28;20049;-74
2021/09/19 13:15:58;;;;;;;1.33;0.80;;;13.60;99.90;;;;;;20770815;28;20492;-74
2021/09/19 13:25:58;;;;;;;1.03;0.63;;;13.60;99.90;;;;;;20755065;28;20938;-74
2021/09/19 13:35:59;;;;;;;1.77;0.73;;;13.60;99.90;;;;;;20764185;28;20139;-74
2021/09/19 13:46:00;;;;;;;1.50;0.60;;;13.50;99.90;;;;;;20735672;28;20424;-75
2021/09/19 13:56:01;;;;;;;1.03;0.53;;;13.50;99.90;;;;;;20752741;28;20041;-75
2021/09/19 14:06:02;;;;;;;0.43;0.30;;;13.30;99.90;;;;;;20764822;28;20042;-74
2021/09/19 14:16:04;;;;;;;1.00;0.20;;;13.10;99.90;;;;;;20706741;28;20401;-74
2021/09/19 14:26:05;;;;;;;0.70;0.40;;;12.90;99.90;;;;;;20680273;28;20041;-74
2021/09/19 14:36:06;;;;;;;2.07;0.50;;;12.80;99.90;;;;;;20692389;28;20400;-75
2021/09/19 14:46:10;;;;;;;0.67;0.40;;;12.80;99.90;;;;;;20716801;22;20061;-74
2021/09/19 14:56:10;;;;;;;0.30;0.30;;;12.80;99.90;;;;;;20781152;28;20569;-72
2021/09/19 15:06:11;;;;;;;0.77;0.40;;;13.00;99.90;;;;;;20804229;28;20056;-71
2021/09/19 15:16:14;;;;;;;0.70;0.30;;;12.90;99.90;;;;;;20803204;28;20148;-74
2021/09/19 15:26:15;;;;;;;1.10;0.50;;;12.70;99.90;;;;;;20792903;28;20415;-74
2021/09/19 15:36:15;;;;;;;6.37;2.50;;;12.80;99.90;;;;;;20799701;28;20036;-74
2021/09/19 15:46:22;;;;;;;13.77;4.73;;;12.90;99.90;;;;;;20817007;28;20562;-74
2021/09/19 15:56:22;;;;;;;1.23;0.70;;;12.80;99.90;;;;;;20787406;28;20048;-75
2021/09/19 16:06:25;;;;;;;22.80;10.60;;;12.80;99.90;;;;;;20773029;28;20025;-75
2021/09/19 16:16:25;;;;;;;1.23;0.50;;;12.70;99.90;;;;;;20773508;28;20141;-75
2021/09/19 16:26:26;;;;;;;1.70;0.80;;;12.50;99.90;;;;;;20800332;28;20523;-75
2021/09/19 16:36:27;;;;;;;2.07;1.10;;;12.40;99.90;;;;;;20791129;28;20033;-75
2021/09/19 16:46:28;;;;;;;2.63;0.47;;;12.40;99.90;;;;;;20779088;28;20041;-75
2021/09/19 16:56:29;;;;;;;3.50;2.07;;;12.30;99.90;;;;;;20776961;28;20133;-76
2021/09/19 17:06:30;;;;;;;7.97;3.47;;;12.30;99.90;;;;;;20786406;28;20025;-77
2021/09/19 17:16:32;;;;;;;6.37;3.20;;;12.30;99.90;;;;;;20791065;28;20080;-77
2021/09/19 17:26:33;;;;;;;2.55;1.17;;;12.10;99.90;;;;;;20799705;28;20112;-75
2021/09/19 17:36:34;;;;;;;1.27;0.70;;;12.00;99.90;;;;;;20787071;28;20026;-77
2021/09/19 17:46:35;;;;;;;2.00;0.80;;;12.00;99.90;;;;;;20743501;28;20118;-77
2021/09/19 17:56:36;;;;;;;1.73;0.70;;;12.00;99.90;;;;;;20732396;28;20498;-74
2021/09/19 18:06:37;;;;;;;21.40;1.23;;;11.90;99.90;;;;;;20748655;28;20460;-76
2021/09/19 18:16:38;;;;;;;2.07;1.17;;;11.90;99.90;;;;;;20747208;28;20124;-77
2021/09/19 18:26:41;;;;;;;2.73;1.43;;;12.00;99.90;;;;;;20750501;28;20034;-74
2021/09/19 18:36:42;;;;;;;17.70;6.30;;;11.90;99.90;;;;;;20726872;28;20076;-76
2021/09/19 18:46:43;;;;;;;7.43;2.87;;;11.90;99.90;;;;;;20746755;28;20492;-76
2021/09/19 18:56:43;;;;;;;2.97;1.40;;;12.00;99.90;;;;;;20745710;28;20026;-77
2021/09/19 19:06:45;;;;;;;2.13;1.10;;;12.00;99.90;;;;;;20759375;28;20030;-77
2021/09/19 19:16:46;;;;;;;1.83;0.90;;;12.10;99.90;;;;;;20761411;28;20042;-77
2021/09/19 19:26:47;;;;;;;0.73;0.50;;;12.10;99.90;;;;;;20750376;28;20087;-77
2021/09/19 19:36:48;;;;;;;3.57;1.73;;;12.10;99.90;;;;;;20826842;28;20121;-77
2021/09/19 19:46:49;;;;;;;0.90;0.73;;;12.00;99.90;;;;;;20841258;28;20048;-77
2021/09/19 19:56:50;;;;;;;2.20;1.00;;;12.10;99.90;;;;;;20837441;28;20476;-77
2021/09/19 20:06:51;;;;;;;3.60;0.90;;;12.10;99.90;;;;;;20836017;28;20032;-74
2021/09/19 20:16:51;;;;;;;2.07;0.87;;;12.10;99.90;;;;;;20834763;28;20029;-76
2021/09/19 20:26:52;;;;;;;1.73;0.90;;;12.10;99.90;;;;;;20839121;28;20033;-77
2021/09/19 20:36:53;;;;;;;2.07;0.77;;;12.10;99.90;;;;;;20804291;28;20480;-77
2021/09/19 20:46:55;;;;;;;2.33;0.80;;;12.20;99.90;;;;;;20789485;28;20030;-75
2021/09/19 20:56:56;;;;;;;4.68;1.05;;;12.20;99.90;;;;;;20789350;28;20026;-76
2021/09/19 21:06:56;;;;;;;2.03;1.20;;;12.20;99.90;;;;;;20788251;28;20408;-77
2021/09/19 21:16:57;;;;;;;4.97;1.70;;;12.30;99.90;;;;;;20787854;28;20053;-72
2021/09/19 21:27:00;;;;;;;3.70;1.93;;;12.20;99.90;;;;;;20786859;28;20030;-75
2021/09/19 21:37:01;;;;;;;16.55;2.40;;;12.20;99.90;;;;;;20786097;28;20026;-74
2021/09/19 21:47:02;;;;;;;5.07;3.03;;;12.20;99.90;;;;;;20784931;28;20160;-75
2021/09/19 21:57:03;;;;;;;2.43;2.00;;;12.10;99.90;;;;;;20797772;28;20115;-76
2021/09/19 22:07:04;;;;;;;6.57;2.77;;;12.20;99.90;;;;;;20826222;28;20025;-75
2021/09/19 22:17:07;;;;;;;5.28;2.47;;;12.10;99.90;;;;;;20826041;28;20040;-76
2021/09/19 22:27:08;;;;;;;6.03;2.72;;;12.20;99.90;;;;;;20829019;28;20045;-76
2021/09/19 22:37:09;;;;;;;7.10;3.50;;;12.10;99.90;;;;;;20825262;28;20545;-76
2021/09/19 22:47:10;;;;;;;16.43;4.33;;;12.00;99.90;;;;;;20824135;28;20045;-76
2021/09/19 22:57:11;;;;;;;8.00;4.10;;;12.10;99.90;;;;;;20824280;28;20068;-76
2021/09/19 23:07:11;;;;;;;7.43;4.03;;;12.00;99.90;;;;;;20823865;28;20120;-73
2021/09/19 23:17:12;;;;;;;6.13;4.37;;;12.10;99.90;;;;;;20823671;28;20033;-75
2021/09/19 23:27:15;;;;;;;12.97;5.20;;;12.10;99.90;;;;;;20823057;28;20104;-76
2021/09/19 23:37:16;;;;;;;5.40;4.00;;;12.10;99.90;;;;;;20822775;28;20029;-76
2021/09/19 23:47:17;;;;;;;7.30;4.73;;;12.10;99.90;;;;;;20829503;28;20033;-73
2021/09/19 23:57:18;;;;;;;10.50;4.07;;;12.10;99.90;;;;;;20818474;28;20026;-76
